createdAt,value
2017-04-07T00:00:25.872Z,48.32
2017-04-07T00:01:25.890Z,49.08
2017-04-07T00:02:25.917Z,48.9
2017-04-07T00:03:25.928Z,48.71
2017-04-07T00:04:26.067Z,48.71
2017-04-07T00:05:25.958Z,48.52
2017-04-07T00:06:25.974Z,48.61
2017-04-07T00:07:25.992Z,48.71
2017-04-07T00:08:26.007Z,49.18
2017-04-07T00:09:26.026Z,48.8
2017-04-07T00:10:26.042Z,48.9
2017-04-07T00:11:26.056Z,48.9
2017-04-07T00:12:26.076Z,48.9
2017-04-07T00:13:26.088Z,48.99
2017-04-07T00:14:26.106Z,49.47
2017-04-07T00:15:26.122Z,48.8
2017-04-07T00:16:26.141Z,48.99
2017-04-07T00:17:26.159Z,49.08
2017-04-07T00:18:26.170Z,48.99
2017-04-07T00:19:26.192Z,48.99
2017-04-07T00:20:26.204Z,49.28
2017-04-07T00:21:26.221Z,49.08
2017-04-07T00:22:26.238Z,48.99
2017-04-07T00:23:26.254Z,48.99
2017-04-07T00:24:26.272Z,49.56
2017-04-07T00:25:26.297Z,49.37
2017-04-07T00:26:26.304Z,48.99
2017-04-07T00:27:26.324Z,49.37
2017-04-07T00:28:26.335Z,49.56
2017-04-07T00:29:26.354Z,49.08
2017-04-07T00:30:26.368Z,49.18
2017-04-07T00:31:26.387Z,49.37
2017-04-07T00:32:26.402Z,49.18
2017-04-07T00:33:26.110Z,48.99
2017-04-07T00:34:26.442Z,48.99
2017-04-07T00:35:26.453Z,49.66
2017-04-07T00:36:26.154Z,49.37
2017-04-07T00:37:26.486Z,49.47
2017-04-07T00:38:26.502Z,49.47
2017-04-07T00:39:26.520Z,49.37
2017-04-07T00:40:26.534Z,49.47
2017-04-07T00:41:26.548Z,49.47
2017-04-07T00:42:26.568Z,49.37
2017-04-07T00:43:26.587Z,49.18
2017-04-07T00:44:26.600Z,49.08
2017-04-07T00:45:26.616Z,49.28
2017-04-07T00:46:26.632Z,49.56
2017-04-07T00:47:26.650Z,49.37
2017-04-07T00:48:26.667Z,49.37
2017-04-07T00:49:26.681Z,50.04
2017-04-07T00:50:26.693Z,49.95
2017-04-07T00:51:26.718Z,49.47
2017-04-07T00:52:26.731Z,49.18
2017-04-07T00:53:26.749Z,49.08
2017-04-07T00:54:26.783Z,49.28
2017-04-07T00:55:26.902Z,49.47
2017-04-07T00:56:26.484Z,50.04
2017-04-07T00:57:26.810Z,49.08
2017-04-07T00:58:26.844Z,49.56
2017-04-07T00:59:26.844Z,49.56
2017-04-07T01:00:26.862Z,49.37
2017-04-07T01:01:26.877Z,50.13
2017-04-07T01:02:26.898Z,50.23
2017-04-07T01:03:26.909Z,49.66
2017-04-07T01:04:26.941Z,50.32
2017-04-07T01:05:26.977Z,49.76
2017-04-07T01:06:26.956Z,50.13
2017-04-07T01:07:26.977Z,49.76
2017-04-07T01:08:26.989Z,49.85
2017-04-07T01:09:27.008Z,50.04
2017-04-07T01:10:27.025Z,49.82
2017-04-07T01:11:27.044Z,49.92
2017-04-07T01:12:27.061Z,50.13
2017-04-07T01:13:27.076Z,49.85
2017-04-07T01:14:27.088Z,50.21
2017-04-07T01:15:27.110Z,49.76
2017-04-07T01:16:27.122Z,50.3
2017-04-07T01:17:27.141Z,49.63
2017-04-07T01:18:27.158Z,50.3
2017-04-07T01:19:27.171Z,49.73
2017-04-07T01:20:27.185Z,49.95
2017-04-07T01:21:27.206Z,50.49
2017-04-07T01:22:27.219Z,50.61
2017-04-07T01:23:27.237Z,49.92
2017-04-07T01:24:27.248Z,50.4
2017-04-07T01:25:27.270Z,50.11
2017-04-07T01:26:27.289Z,50.4
2017-04-07T01:27:27.299Z,50.49
2017-04-07T01:28:27.313Z,50.3
2017-04-07T01:29:27.331Z,50.3
2017-04-07T01:30:27.347Z,50.11
2017-04-07T01:31:27.362Z,50.11
2017-04-07T01:32:27.385Z,50.49
2017-04-07T01:33:27.399Z,50.21
2017-04-07T01:34:27.414Z,50.4
2017-04-07T01:35:27.429Z,50.49
2017-04-07T01:36:27.447Z,50.59
2017-04-07T01:37:42.042Z,50.87
2017-04-07T01:38:27.476Z,50.87
2017-04-07T01:39:27.186Z,50.59
2017-04-07T01:40:27.513Z,50.78
2017-04-07T01:41:27.213Z,50.59
2017-04-07T01:42:27.550Z,50.68
2017-04-07T01:43:27.559Z,50.97
2017-04-07T01:44:27.579Z,50.68
2017-04-07T01:45:27.277Z,50.87
2017-04-07T01:46:27.610Z,50.59
2017-04-07T01:47:27.624Z,50.78
2017-04-07T01:48:27.329Z,51.06
2017-04-07T01:49:27.343Z,51.16
2017-04-07T01:50:27.675Z,51.06
2017-04-07T01:51:27.692Z,51.16
2017-04-07T01:52:27.391Z,51.16
2017-04-07T01:53:27.722Z,51.35
2017-04-07T01:54:27.735Z,51.25
2017-04-07T01:55:27.441Z,51.16
2017-04-07T01:56:27.768Z,51.06
2017-04-07T01:57:27.785Z,51.45
2017-04-07T01:58:27.972Z,51.25
2017-04-07T01:59:27.817Z,51.35
2017-04-07T02:00:27.954Z,51.35
2017-04-07T02:01:27.850Z,51.25
2017-04-07T02:02:27.866Z,51.35
2017-04-07T02:03:28.052Z,50.87
2017-04-07T02:04:27.898Z,50.87
2017-04-07T02:05:27.914Z,51.64
2017-04-07T02:06:27.927Z,51.45
2017-04-07T02:07:27.945Z,51.54
2017-04-07T02:08:27.959Z,51.64
2017-04-07T02:09:27.975Z,51.35
2017-04-07T02:10:27.992Z,51.45
2017-04-07T02:11:28.014Z,51.64
2017-04-07T02:12:28.024Z,51.82
2017-04-07T02:13:28.043Z,51.73
2017-04-07T02:14:28.174Z,52.11
2017-04-07T02:15:28.073Z,52.11
2017-04-07T02:16:28.092Z,52.01
2017-04-07T02:17:28.108Z,52.01
2017-04-07T02:18:28.121Z,52.11
2017-04-07T02:19:28.135Z,51.64
2017-04-07T02:20:28.158Z,52.11
2017-04-07T02:21:28.173Z,52.11
2017-04-07T02:22:28.185Z,51.92
2017-04-07T02:23:28.204Z,52.01
2017-04-07T02:24:27.906Z,52.11
2017-04-07T02:25:28.235Z,52.01
2017-04-07T02:26:28.250Z,52.11
2017-04-07T02:27:28.321Z,51.92
2017-04-07T02:28:28.279Z,52.01
2017-04-07T02:29:28.298Z,51.92
2017-04-07T02:30:28.314Z,51.92
2017-04-07T02:31:28.328Z,52.01
2017-04-07T02:32:28.353Z,52.11
2017-04-07T02:33:28.363Z,51.92
2017-04-07T02:34:28.065Z,52.11
2017-04-07T02:35:28.397Z,52.11
2017-04-07T02:36:28.407Z,52.3
2017-04-07T02:37:28.423Z,52.2
2017-04-07T02:38:28.127Z,52.4
2017-04-07T02:39:28.458Z,52.01
2017-04-07T02:40:28.473Z,52.01
2017-04-07T02:41:28.490Z,52.3
2017-04-07T02:42:28.504Z,52.2
2017-04-07T02:43:28.656Z,52.01
2017-04-07T02:44:28.659Z,52.11
2017-04-07T02:45:28.553Z,52.3
2017-04-07T02:46:28.576Z,52.3
2017-04-07T02:47:28.582Z,52.59
2017-04-07T02:48:28.602Z,52.4
2017-04-07T02:49:28.615Z,51.92
2017-04-07T02:50:28.639Z,52.01
2017-04-07T02:51:28.650Z,52.3
2017-04-07T02:52:28.662Z,52.3
2017-04-07T02:53:28.678Z,52.3
2017-04-07T02:54:28.696Z,52.11
2017-04-07T02:55:28.712Z,52.4
2017-04-07T02:56:28.728Z,52.2
2017-04-07T02:57:28.740Z,52.11
2017-04-07T02:58:28.757Z,52.49
2017-04-07T02:59:28.774Z,52.11
2017-04-07T03:00:28.789Z,52.3
2017-04-07T03:01:28.807Z,52.2
2017-04-07T03:02:28.832Z,52.01
2017-04-07T03:03:28.835Z,52.11
2017-04-07T03:04:28.854Z,52.3
2017-04-07T03:05:28.866Z,52.11
2017-04-07T03:06:28.885Z,51.99
2017-04-07T03:07:28.901Z,52.09
2017-04-07T03:08:28.917Z,52.37
2017-04-07T03:09:28.938Z,52.18
2017-04-07T03:10:28.947Z,52.59
2017-04-07T03:11:28.966Z,52.28
2017-04-07T03:12:28.980Z,52.3
2017-04-07T03:13:29.031Z,52.47
2017-04-07T03:14:29.039Z,52.47
2017-04-07T03:15:29.046Z,52.56
2017-04-07T03:16:29.058Z,52.66
2017-04-07T03:17:29.059Z,52.75
2017-04-07T03:18:29.076Z,52.47
2017-04-07T03:19:29.089Z,52.56
2017-04-07T03:20:29.107Z,52.56
2017-04-07T03:21:29.125Z,52.66
2017-04-07T03:22:29.140Z,52.75
2017-04-07T03:23:29.158Z,52.75
2017-04-07T03:24:29.170Z,52.56
2017-04-07T03:25:29.183Z,52.84
2017-04-07T03:26:29.316Z,53.04
2017-04-07T03:27:29.222Z,52.66
2017-04-07T03:28:29.294Z,53.04
2017-04-07T03:29:29.251Z,52.56
2017-04-07T03:30:29.264Z,53.23
2017-04-07T03:31:29.278Z,52.37
2017-04-07T03:32:29.292Z,52.47
2017-04-07T03:33:29.306Z,52.97
2017-04-07T03:34:29.322Z,52.37
2017-04-07T03:35:29.551Z,52.59
2017-04-07T03:36:29.359Z,52.56
2017-04-07T03:37:29.379Z,52.75
2017-04-07T03:38:29.396Z,52.59
2017-04-07T03:39:29.197Z,52.75
2017-04-07T03:40:29.230Z,52.59
2017-04-07T03:41:29.439Z,52.4
2017-04-07T03:42:29.137Z,52.4
2017-04-07T03:43:29.468Z,52.4
2017-04-07T03:44:29.176Z,52.59
2017-04-07T03:45:29.184Z,53.16
2017-04-07T03:46:29.513Z,52.78
2017-04-07T03:47:29.715Z,52.59
2017-04-07T03:48:29.548Z,53.06
2017-04-07T03:49:29.565Z,52.59
2017-04-07T03:50:29.581Z,52.87
2017-04-07T03:51:29.598Z,52.87
2017-04-07T03:52:29.612Z,53.06
2017-04-07T03:53:29.621Z,52.78
2017-04-07T03:54:29.328Z,52.59
2017-04-07T03:55:29.654Z,52.87
2017-04-07T03:56:29.751Z,53.06
2017-04-07T03:57:29.714Z,52.59
2017-04-07T03:58:29.699Z,52.78
2017-04-07T03:59:29.721Z,52.87
2017-04-07T04:00:29.731Z,52.59
2017-04-07T04:01:29.439Z,52.97
2017-04-07T04:02:29.768Z,52.97
2017-04-07T04:03:29.470Z,53.16
2017-04-07T04:04:29.794Z,52.4
2017-04-07T04:05:29.535Z,52.49
2017-04-07T04:06:29.829Z,53.35
2017-04-07T04:07:29.842Z,52.78
2017-04-07T04:08:29.863Z,52.59
2017-04-07T04:09:29.873Z,53.35
2017-04-07T04:10:29.892Z,52.59
2017-04-07T04:11:29.591Z,52.68
2017-04-07T04:12:29.920Z,52.68
2017-04-07T04:13:29.942Z,52.68
2017-04-07T04:14:29.642Z,53.25
2017-04-07T04:15:29.968Z,53.25
2017-04-07T04:16:29.703Z,53.92
2017-04-07T04:17:29.998Z,53.83
2017-04-07T04:18:30.019Z,54.39
2017-04-07T04:19:30.036Z,54.11
2017-04-07T04:20:30.053Z,53.73
2017-04-07T04:21:30.072Z,53.64
2017-04-07T04:22:30.080Z,53.54
2017-04-07T04:23:30.237Z,53.54
2017-04-07T04:24:30.222Z,54.02
2017-04-07T04:25:30.220Z,54.11
2017-04-07T04:26:30.251Z,54.78
2017-04-07T04:27:30.261Z,53.92
2017-04-07T04:28:29.860Z,54.02
2017-04-07T04:29:30.279Z,53.92
2017-04-07T04:30:30.278Z,54.3
2017-04-07T04:31:30.286Z,54.02
2017-04-07T04:32:30.296Z,53.92
2017-04-07T04:33:29.938Z,54.59
2017-04-07T04:34:30.278Z,54.49
2017-04-07T04:35:30.290Z,54.68
2017-04-07T04:36:30.303Z,54.21
2017-04-07T04:37:30.370Z,54.21
2017-04-07T04:38:30.455Z,54.68
2017-04-07T04:39:30.467Z,54.59
2017-04-07T04:40:30.376Z,53.73
2017-04-07T04:41:30.383Z,53.25
2017-04-07T04:42:30.551Z,53.83
2017-04-07T04:43:30.512Z,53.16
2017-04-07T04:44:30.431Z,53.35
2017-04-07T04:45:30.447Z,53.64
2017-04-07T04:46:30.150Z,54.02
2017-04-07T04:47:30.688Z,54.49
2017-04-07T04:48:30.558Z,54.39
2017-04-07T04:49:30.509Z,54.21
2017-04-07T04:50:30.524Z,54.59
2017-04-07T04:51:30.543Z,53.83
2017-04-07T04:52:30.557Z,54.11
2017-04-07T04:53:30.571Z,53.54
2017-04-07T04:54:30.592Z,53.73
2017-04-07T04:55:30.606Z,53.73
2017-04-07T04:56:30.646Z,53.25
2017-04-07T04:57:30.639Z,53.83
2017-04-07T04:58:30.654Z,52.78
2017-04-07T04:59:30.673Z,53.54
2017-04-07T05:00:30.686Z,52.87
2017-04-07T05:01:30.700Z,53.35
2017-04-07T05:02:30.717Z,52.68
2017-04-07T05:03:30.728Z,52.78
2017-04-07T05:04:30.747Z,52.87
2017-04-07T05:05:30.762Z,53.25
2017-04-07T05:06:30.781Z,53.25
2017-04-07T05:07:30.792Z,53.44
2017-04-07T05:08:30.808Z,53.25
2017-04-07T05:09:30.866Z,53.06
2017-04-07T05:10:30.843Z,52.87
2017-04-07T05:11:30.863Z,53.35
2017-04-07T05:12:30.565Z,53.44
2017-04-07T05:13:30.896Z,53.16
2017-04-07T05:14:30.920Z,52.78
2017-04-07T05:15:30.925Z,53.25
2017-04-07T05:16:30.951Z,52.78
2017-04-07T05:17:30.953Z,53.06
2017-04-07T05:18:30.972Z,53.35
2017-04-07T05:19:31.001Z,53.35
2017-04-07T05:20:31.007Z,53.25
2017-04-07T05:21:31.017Z,53.54
2017-04-07T05:22:31.033Z,53.54
2017-04-07T05:23:31.052Z,53.73
2017-04-07T05:24:31.069Z,53.92
2017-04-07T05:25:31.084Z,53.64
2017-04-07T05:26:31.102Z,53.83
2017-04-07T05:27:31.113Z,53.92
2017-04-07T05:28:31.131Z,53.83
2017-04-07T05:29:31.144Z,53.92
2017-04-07T05:30:31.167Z,53.92
2017-04-07T05:31:31.179Z,53.92
2017-04-07T05:32:31.198Z,53.92
2017-04-07T05:33:31.208Z,53.54
2017-04-07T05:34:31.226Z,54.39
2017-04-07T05:35:31.241Z,53.54
2017-04-07T05:36:31.261Z,54.3
2017-04-07T05:37:31.275Z,53.25
2017-04-07T05:38:31.294Z,53.83
2017-04-07T05:39:31.305Z,53.83
2017-04-07T05:40:31.318Z,53.73
2017-04-07T05:41:31.338Z,53.73
2017-04-07T05:42:31.353Z,53.54
2017-04-07T05:43:31.367Z,54.3
2017-04-07T05:44:31.386Z,53.73
2017-04-07T05:45:31.399Z,53.44
2017-04-07T05:46:31.536Z,54.3
2017-04-07T05:47:31.432Z,54.02
2017-04-07T05:48:31.455Z,54.11
2017-04-07T05:49:31.591Z,53.92
2017-04-07T05:50:31.478Z,54.02
2017-04-07T05:51:31.496Z,53.16
2017-04-07T05:52:31.201Z,53.44
2017-04-07T05:53:31.647Z,53.64
2017-04-07T05:54:31.711Z,54.11
2017-04-07T05:55:31.562Z,53.73
2017-04-07T05:56:31.575Z,53.64
2017-04-07T05:57:31.595Z,54.3
2017-04-07T05:58:31.610Z,54.11
2017-04-07T05:59:31.623Z,53.73
2017-04-07T06:00:31.748Z,53.73
2017-04-07T06:01:31.740Z,53.44
2017-04-07T06:02:31.671Z,54.21
2017-04-07T06:03:31.688Z,54.11
2017-04-07T06:04:31.702Z,53.25
2017-04-07T06:05:31.409Z,53.25
2017-04-07T06:06:31.735Z,54.02
2017-04-07T06:07:31.755Z,53.25
2017-04-07T06:08:31.765Z,54.21
2017-04-07T06:09:31.470Z,53.44
2017-04-07T06:10:31.795Z,53.35
2017-04-07T06:11:31.817Z,53.54
2017-04-07T06:12:31.828Z,53.25
2017-04-07T06:13:31.846Z,53.64
2017-04-07T06:14:31.951Z,53.92
2017-04-07T06:15:31.957Z,53.44
2017-04-07T06:16:31.903Z,53.35
2017-04-07T06:17:31.910Z,54.02
2017-04-07T06:18:31.922Z,53.44
2017-04-07T06:19:31.941Z,53.35
2017-04-07T06:20:31.958Z,53.83
2017-04-07T06:21:31.972Z,53.25
2017-04-07T06:22:31.987Z,53.44
2017-04-07T06:23:32.008Z,54.21
2017-04-07T06:24:32.021Z,53.35
2017-04-07T06:25:32.036Z,53.92
2017-04-07T06:26:32.052Z,53.25
2017-04-07T06:27:32.069Z,53.25
2017-04-07T06:28:32.087Z,53.25
2017-04-07T06:29:32.097Z,53.35
2017-04-07T06:30:32.116Z,53.35
2017-04-07T06:31:32.131Z,53.54
2017-04-07T06:32:32.147Z,53.54
2017-04-07T06:33:32.165Z,53.92
2017-04-07T06:34:32.175Z,53.16
2017-04-07T06:35:32.303Z,54.02
2017-04-07T06:36:32.210Z,53.54
2017-04-07T06:37:32.225Z,54.02
2017-04-07T06:38:32.245Z,54.11
2017-04-07T06:39:32.263Z,53.44
2017-04-07T06:40:32.277Z,53.44
2017-04-07T06:41:32.292Z,53.54
2017-04-07T06:42:32.306Z,53.92
2017-04-07T06:43:32.331Z,53.83
2017-04-07T06:44:32.342Z,53.54
2017-04-07T06:45:32.482Z,53.73
2017-04-07T06:46:32.493Z,54.02
2017-04-07T06:47:32.583Z,54.11
2017-04-07T06:48:32.591Z,54.11
2017-04-07T06:49:32.417Z,53.44
2017-04-07T06:50:32.437Z,54.02
2017-04-07T06:51:32.145Z,53.16
2017-04-07T06:52:32.471Z,54.21
2017-04-07T06:53:32.484Z,54.21
2017-04-07T06:54:32.493Z,53.54
2017-04-07T06:55:32.514Z,53.54
2017-04-07T06:56:32.532Z,53.64
2017-04-07T06:57:32.552Z,53.54
2017-04-07T06:58:32.566Z,53.54
2017-04-07T06:59:32.578Z,53.54
2017-04-07T07:00:32.398Z,53.73
2017-04-07T07:01:32.404Z,54.49
2017-04-07T07:02:32.728Z,54.21
2017-04-07T07:03:32.639Z,53.35
2017-04-07T07:04:32.654Z,53.73
2017-04-07T07:05:32.672Z,54.11
2017-04-07T07:06:32.375Z,53.83
2017-04-07T07:07:32.702Z,54.11
2017-04-07T07:08:32.722Z,54.68
2017-04-07T07:09:32.735Z,54.88
2017-04-07T07:10:32.436Z,55.35
2017-04-07T07:11:32.769Z,55.16
2017-04-07T07:12:32.784Z,55.07
2017-04-07T07:13:32.538Z,55.63
2017-04-07T07:14:32.817Z,55.73
2017-04-07T07:15:32.836Z,56.49
2017-04-07T07:16:32.974Z,56.87
2017-04-07T07:17:32.873Z,56.49
2017-04-07T07:18:32.903Z,56.97
2017-04-07T07:19:32.893Z,57.07
2017-04-07T07:20:32.908Z,56.97
2017-04-07T07:21:32.927Z,57.35
2017-04-07T07:22:32.942Z,57.64
2017-04-07T07:23:32.962Z,57.45
2017-04-07T07:24:32.976Z,57.64
2017-04-07T07:25:32.994Z,57.92
2017-04-07T07:26:33.013Z,58.02
2017-04-07T07:27:33.024Z,57.54
2017-04-07T07:28:33.038Z,57.92
2017-04-07T07:29:33.058Z,57.73
2017-04-07T07:30:33.071Z,58.69
2017-04-07T07:31:33.092Z,58.4
2017-04-07T07:32:33.101Z,58.4
2017-04-07T07:33:33.119Z,58.5
2017-04-07T07:34:33.142Z,58.3
2017-04-07T07:35:32.850Z,59.16
2017-04-07T07:36:32.858Z,59.06
2017-04-07T07:37:33.238Z,58.78
2017-04-07T07:38:33.209Z,58.97
2017-04-07T07:39:33.229Z,58.78
2017-04-07T07:40:33.236Z,58.78
2017-04-07T07:41:33.245Z,59.26
2017-04-07T07:42:33.264Z,58.97
2017-04-07T07:43:33.063Z,59.54
2017-04-07T07:44:33.292Z,59.45
2017-04-07T07:45:33.312Z,59.45
2017-04-07T07:46:33.327Z,59.35
2017-04-07T07:47:33.339Z,59.64
2017-04-07T07:48:33.354Z,59.92
2017-04-07T07:49:33.493Z,59.67
2017-04-07T07:50:33.396Z,59.64
2017-04-07T07:51:33.408Z,59.92
2017-04-07T07:52:33.598Z,59.92
2017-04-07T07:53:33.449Z,60.14
2017-04-07T07:54:33.455Z,59.76
2017-04-07T07:55:33.477Z,60.05
2017-04-07T07:56:33.487Z,60.05
2017-04-07T07:57:33.504Z,60.05
2017-04-07T07:58:33.518Z,60.33
2017-04-07T07:59:33.617Z,60.52
2017-04-07T08:00:33.625Z,60.43
2017-04-07T08:01:33.568Z,61
2017-04-07T08:02:33.585Z,60.52
2017-04-07T08:03:33.598Z,60.43
2017-04-07T08:04:33.622Z,60.81
2017-04-07T08:05:33.634Z,60.72
2017-04-07T08:06:33.652Z,60.62
2017-04-07T08:07:33.667Z,60.24
2017-04-07T08:08:33.685Z,60.52
2017-04-07T08:09:33.722Z,60.62
2017-04-07T08:10:33.710Z,60.62
2017-04-07T08:11:33.731Z,61.1
2017-04-07T08:12:33.748Z,60.72
2017-04-07T08:13:33.762Z,60.72
2017-04-07T08:14:33.779Z,60.52
2017-04-07T08:15:33.799Z,60.72
2017-04-07T08:16:33.499Z,61.19
2017-04-07T08:17:33.826Z,61.29
2017-04-07T08:18:33.840Z,61
2017-04-07T08:19:33.865Z,61.38
2017-04-07T08:20:33.564Z,60.91
2017-04-07T08:21:33.892Z,61.29
2017-04-07T08:22:33.904Z,61.38
2017-04-07T08:23:33.922Z,61.57
2017-04-07T08:24:33.942Z,61.57
2017-04-07T08:25:33.960Z,61.38
2017-04-07T08:26:33.978Z,61.76
2017-04-07T08:27:33.989Z,61.96
2017-04-07T08:28:34.004Z,61.76
2017-04-07T08:29:34.029Z,61.48
2017-04-07T08:30:33.726Z,61.67
2017-04-07T08:31:34.054Z,61.48
2017-04-07T08:32:34.068Z,61.57
2017-04-07T08:33:34.090Z,62.15
2017-04-07T08:34:34.107Z,61.86
2017-04-07T08:35:34.121Z,61.86
2017-04-07T08:36:34.137Z,62.05
2017-04-07T08:37:34.154Z,61.67
2017-04-07T08:38:34.171Z,61.86
2017-04-07T08:39:34.184Z,61.96
2017-04-07T08:40:34.201Z,61.96
2017-04-07T08:41:34.218Z,61.96
2017-04-07T08:42:34.235Z,61.86
2017-04-07T08:43:34.248Z,61.96
2017-04-07T08:44:34.268Z,61.86
2017-04-07T08:45:34.284Z,61.96
2017-04-07T08:46:34.301Z,61.96
2017-04-07T08:47:34.314Z,61.57
2017-04-07T08:48:34.016Z,62.05
2017-04-07T08:49:34.351Z,61.86
2017-04-07T08:50:34.379Z,62.91
2017-04-07T08:51:34.384Z,62.15
2017-04-07T08:52:34.397Z,62.18
2017-04-07T08:53:34.412Z,62.34
2017-04-07T08:54:34.427Z,62.24
2017-04-07T08:55:34.451Z,62.65
2017-04-07T08:56:34.148Z,62.34
2017-04-07T08:57:34.478Z,62.56
2017-04-07T08:58:34.494Z,62.52
2017-04-07T08:59:34.512Z,62.56
2017-04-07T09:00:34.529Z,62.75
2017-04-07T09:01:34.542Z,62.56
2017-04-07T09:02:34.561Z,62.46
2017-04-07T09:03:34.585Z,62.65
2017-04-07T09:04:34.600Z,62.46
2017-04-07T09:05:34.613Z,62.81
2017-04-07T09:06:34.629Z,62.72
2017-04-07T09:07:34.643Z,62.65
2017-04-07T09:08:34.660Z,62.56
2017-04-07T09:09:34.678Z,62.08
2017-04-07T09:10:34.692Z,62.65
2017-04-07T09:11:34.707Z,62.84
2017-04-07T09:12:34.413Z,62.65
2017-04-07T09:13:34.740Z,62.75
2017-04-07T09:14:34.443Z,62.37
2017-04-07T09:15:34.782Z,62.84
2017-04-07T09:16:34.796Z,62.65
2017-04-07T09:17:34.809Z,62.84
2017-04-07T09:18:34.828Z,62.84
2017-04-07T09:19:34.529Z,62.94
2017-04-07T09:20:34.862Z,63.23
2017-04-07T09:21:34.876Z,63.13
2017-04-07T09:22:34.891Z,63.13
2017-04-07T09:23:34.910Z,63.23
2017-04-07T09:24:34.930Z,63.8
2017-04-07T09:25:34.946Z,63.99
2017-04-07T09:26:34.961Z,63.8
2017-04-07T09:27:34.976Z,63.23
2017-04-07T09:28:34.994Z,63.6
2017-04-07T09:29:35.006Z,63.89
2017-04-07T09:30:35.026Z,63.7
2017-04-07T09:31:35.047Z,63.7
2017-04-07T09:32:35.057Z,63.73
2017-04-07T09:33:35.076Z,63.7
2017-04-07T09:34:35.093Z,63.83
2017-04-07T09:35:35.112Z,63.73
2017-04-07T09:36:35.129Z,63.73
2017-04-07T09:37:35.141Z,63.73
2017-04-07T09:38:35.165Z,63.07
2017-04-07T09:39:35.179Z,63.07
2017-04-07T09:40:35.190Z,63.35
2017-04-07T09:41:35.211Z,63.16
2017-04-07T09:42:35.230Z,63.07
2017-04-07T09:43:35.247Z,63.35
2017-04-07T09:44:35.261Z,63.35
2017-04-07T09:45:35.279Z,63.26
2017-04-07T09:46:35.296Z,63.92
2017-04-07T09:47:35.316Z,63.73
2017-04-07T09:48:35.017Z,63.73
2017-04-07T09:49:35.347Z,63.83
2017-04-07T09:50:35.361Z,63.64
2017-04-07T09:51:35.384Z,64.12
2017-04-07T09:52:35.432Z,63.35
2017-04-07T09:53:35.412Z,63.73
2017-04-07T09:54:35.486Z,64.21
2017-04-07T09:55:35.447Z,64.31
2017-04-07T09:56:35.465Z,64.02
2017-04-07T09:57:35.483Z,63.92
2017-04-07T09:58:35.188Z,63.54
2017-04-07T09:59:35.204Z,63.92
2017-04-07T10:00:35.546Z,64.21
2017-04-07T10:01:35.240Z,64.21
2017-04-07T10:02:35.568Z,64.31
2017-04-07T10:03:35.587Z,64.31
2017-04-07T10:04:35.289Z,64.21
2017-04-07T10:05:35.716Z,64.02
2017-04-07T10:06:35.322Z,64.4
2017-04-07T10:07:35.724Z,64.69
2017-04-07T10:08:35.732Z,64.5
2017-04-07T10:09:35.740Z,64.5
2017-04-07T10:10:35.750Z,63.92
2017-04-07T10:11:35.749Z,64.59
2017-04-07T10:12:35.757Z,64.21
2017-04-07T10:13:35.766Z,64.12
2017-04-07T10:14:35.777Z,64.02
2017-04-07T10:15:35.792Z,64.12
2017-04-07T10:16:35.493Z,64.4
2017-04-07T10:17:35.852Z,64.5
2017-04-07T10:18:35.862Z,64.59
2017-04-07T10:19:35.870Z,64.31
2017-04-07T10:20:35.877Z,64.69
2017-04-07T10:21:35.993Z,64.59
2017-04-07T10:22:36.001Z,64.69
2017-04-07T10:23:36.010Z,64.59
2017-04-07T10:24:36.019Z,64.88
2017-04-07T10:25:36.050Z,64.69
2017-04-07T10:26:36.051Z,64.78
2017-04-07T10:27:36.059Z,64.53
2017-04-07T10:28:36.068Z,64.72
2017-04-07T10:29:36.032Z,64.81
2017-04-07T10:30:36.054Z,64.62
2017-04-07T10:31:36.067Z,64.81
2017-04-07T10:32:36.089Z,64.43
2017-04-07T10:33:36.105Z,64.62
2017-04-07T10:34:36.123Z,64.72
2017-04-07T10:35:36.139Z,64.72
2017-04-07T10:36:36.159Z,64.81
2017-04-07T10:37:36.173Z,64.81
2017-04-07T10:38:36.193Z,65.1
2017-04-07T10:39:36.209Z,64.53
2017-04-07T10:40:36.224Z,65.01
2017-04-07T10:41:36.244Z,65.2
2017-04-07T10:42:36.260Z,65.48
2017-04-07T10:43:36.280Z,65.48
2017-04-07T10:44:36.299Z,64.81
2017-04-07T10:45:36.313Z,65.48
2017-04-07T10:46:36.331Z,65.39
2017-04-07T10:47:36.349Z,65.3
2017-04-07T10:48:36.366Z,65.39
2017-04-07T10:49:36.379Z,65.39
2017-04-07T10:50:36.406Z,65.3
2017-04-07T10:51:36.416Z,65.2
2017-04-07T10:52:36.434Z,64.91
2017-04-07T10:53:36.454Z,65.2
2017-04-07T10:54:36.469Z,65.48
2017-04-07T10:55:36.495Z,65.1
2017-04-07T10:56:36.506Z,65.3
2017-04-07T10:57:36.521Z,65.1
2017-04-07T10:58:36.542Z,65.2
2017-04-07T10:59:36.558Z,65.48
2017-04-07T11:00:36.574Z,65.3
2017-04-07T11:01:36.596Z,65.2
2017-04-07T11:02:36.609Z,65.48
2017-04-07T11:03:36.626Z,65.2
2017-04-07T11:04:36.645Z,65.2
2017-04-07T11:05:36.770Z,65.1
2017-04-07T11:06:36.778Z,65.87
2017-04-07T11:07:36.786Z,65.2
2017-04-07T11:08:36.820Z,65.2
2017-04-07T11:09:36.830Z,65.1
2017-04-07T11:10:36.828Z,65.2
2017-04-07T11:11:36.837Z,65.87
2017-04-07T11:12:36.845Z,65.3
2017-04-07T11:13:36.854Z,65.1
2017-04-07T11:14:36.861Z,65.58
2017-04-07T11:15:36.862Z,65.2
2017-04-07T11:16:36.870Z,65.77
2017-04-07T11:17:36.877Z,65.2
2017-04-07T11:18:36.893Z,65.77
2017-04-07T11:19:36.912Z,65.3
2017-04-07T11:20:36.931Z,65.2
2017-04-07T11:21:36.953Z,65.52
2017-04-07T11:22:36.968Z,65.1
2017-04-07T11:23:36.981Z,65.04
2017-04-07T11:24:37.000Z,65.52
2017-04-07T11:25:37.018Z,64.94
2017-04-07T11:26:37.033Z,64.94
2017-04-07T11:27:37.057Z,64.47
2017-04-07T11:28:37.071Z,64.65
2017-04-07T11:29:37.097Z,64.47
2017-04-07T11:30:37.107Z,64.28
2017-04-07T11:31:36.811Z,64.56
2017-04-07T11:32:37.140Z,63.99
2017-04-07T11:33:37.160Z,64.28
2017-04-07T11:34:37.181Z,64.47
2017-04-07T11:35:37.197Z,63.99
2017-04-07T11:36:37.214Z,64.47
2017-04-07T11:37:37.235Z,64.28
2017-04-07T11:38:37.250Z,64.28
2017-04-07T11:39:37.268Z,63.99
2017-04-07T11:40:37.290Z,64.09
2017-04-07T11:41:37.305Z,64.09
2017-04-07T11:42:37.324Z,64.22
2017-04-07T11:43:37.343Z,64.31
2017-04-07T11:44:37.356Z,63.99
2017-04-07T11:45:37.378Z,63.89
2017-04-07T11:46:37.082Z,63.51
2017-04-07T11:47:37.416Z,63.32
2017-04-07T11:48:37.429Z,63.26
2017-04-07T11:49:37.453Z,62.75
2017-04-07T11:50:37.159Z,62.75
2017-04-07T11:51:37.487Z,62.65
2017-04-07T11:52:37.508Z,62.84
2017-04-07T11:53:37.520Z,62.08
2017-04-07T11:54:37.246Z,62.08
2017-04-07T11:55:37.561Z,61.6
2017-04-07T11:56:37.573Z,61.92
2017-04-07T11:57:37.596Z,61.72
2017-04-07T11:58:37.612Z,62.01
2017-04-07T11:59:37.631Z,61.16
2017-04-07T12:00:37.651Z,61.06
2017-04-07T12:01:37.670Z,61.35
2017-04-07T12:02:37.682Z,61.06
2017-04-07T12:03:37.704Z,60.77
2017-04-07T12:04:37.724Z,60.68
2017-04-07T12:05:37.740Z,61.44
2017-04-07T12:06:37.761Z,60.77
2017-04-07T12:07:37.779Z,60.58
2017-04-07T12:08:37.800Z,60.96
2017-04-07T12:09:37.813Z,60.68
2017-04-07T12:10:37.525Z,60.1
2017-04-07T12:11:37.538Z,60.1
2017-04-07T12:12:37.872Z,60.01
2017-04-07T12:13:37.886Z,60.39
2017-04-07T12:14:37.903Z,59.81
2017-04-07T12:15:37.923Z,59.91
2017-04-07T12:16:37.944Z,60.3
2017-04-07T12:17:37.650Z,60.68
2017-04-07T12:18:37.779Z,60.68
2017-04-07T12:19:38.000Z,61.54
2017-04-07T12:20:38.019Z,61.35
2017-04-07T12:21:38.031Z,61.35
2017-04-07T12:22:38.054Z,61.54
2017-04-07T12:23:38.070Z,61.82
2017-04-07T12:24:38.091Z,62.21
2017-04-07T12:25:38.111Z,61.92
2017-04-07T12:26:38.124Z,62.3
2017-04-07T12:27:38.188Z,62.11
2017-04-07T12:28:38.167Z,62.78
2017-04-07T12:29:38.184Z,62.49
2017-04-07T12:30:38.199Z,62.59
2017-04-07T12:31:38.220Z,62.78
2017-04-07T12:32:38.248Z,62.97
2017-04-07T12:33:38.259Z,62.97
2017-04-07T12:34:38.280Z,62.78
2017-04-07T12:35:38.298Z,62.68
2017-04-07T12:36:38.313Z,62.21
2017-04-07T12:37:38.336Z,62.4
2017-04-07T12:38:38.349Z,62.78
2017-04-07T12:39:38.366Z,62.3
2017-04-07T12:40:38.385Z,62.11
2017-04-07T12:41:38.405Z,62.4
2017-04-07T12:42:38.424Z,62.59
2017-04-07T12:43:38.449Z,62.68
2017-04-07T12:44:38.460Z,62.59
2017-04-07T12:45:38.480Z,63.07
2017-04-07T12:46:38.531Z,62.78
2017-04-07T12:47:38.539Z,62.87
2017-04-07T12:48:38.540Z,62.78
2017-04-07T12:49:38.551Z,62.78
2017-04-07T12:50:38.571Z,62.68
2017-04-07T12:51:38.588Z,62.87
2017-04-07T12:52:38.612Z,63.16
2017-04-07T12:53:38.623Z,63.16
2017-04-07T12:54:38.649Z,63.16
2017-04-07T12:55:38.661Z,63.23